Time;durP1;ratioP1;P1;durP2;ratioP2;P2;SDS_P1;SDS_P2;PMS_P1;PMS_P2;Temp;Humidity;BMP_temperature;BMP_pressure;BME280_temperature;BME280_humidity;BME280_pressure;Samples;Min_cycle;Max_cycle;Signal;HPM_P1;HPM_P2
2022/07/09 00:01:59;;;;;;;3.53;1.23;;;20.70;99.90;;;;;;4125307;28;20027;-68
2022/07/09 00:03:59;;;;;;;1.48;1.20;;;20.70;99.90;;;;;;4129564;28;20081;-68
2022/07/09 00:06:02;;;;;;;3.45;1.50;;;20.70;99.90;;;;;;4128724;28;20073;-69
2022/07/09 00:08:03;;;;;;;1.73;1.20;;;20.70;99.80;;;;;;4129255;28;20069;-68
2022/07/09 00:10:04;;;;;;;4.20;1.45;;;20.60;99.90;;;;;;4128365;28;20489;-71
2022/07/09 00:12:05;;;;;;;2.45;1.38;;;20.60;99.90;;;;;;4127616;28;20085;-69
2022/07/09 00:14:06;;;;;;;2.22;1.42;;;20.60;99.90;;;;;;4129255;28;20027;-69
2022/07/09 00:16:07;;;;;;;3.25;1.50;;;20.50;99.90;;;;;;4128942;28;20032;-69
2022/07/09 00:18:07;;;;;;;4.03;1.75;;;20.50;99.90;;;;;;4129232;28;20030;-69
2022/07/09 00:20:08;;;;;;;2.13;1.50;;;20.50;99.90;;;;;;4128640;28;20474;-70
2022/07/09 00:22:09;;;;;;;2.88;1.50;;;20.50;99.90;;;;;;4129257;28;20409;-69
2022/07/09 00:24:10;;;;;;;2.63;1.23;;;20.50;99.90;;;;;;4129282;28;20030;-68
2022/07/09 00:26:10;;;;;;;3.15;1.33;;;20.50;99.90;;;;;;4128775;28;20037;-69
2022/07/09 00:28:11;;;;;;;3.13;1.50;;;20.50;99.90;;;;;;4129616;28;20080;-69
2022/07/09 00:30:11;;;;;;;1.80;1.30;;;20.50;99.90;;;;;;4128406;28;20038;-70
2022/07/09 00:32:12;;;;;;;1.73;1.38;;;20.50;99.90;;;;;;4129071;28;20089;-69
2022/07/09 00:34:13;;;;;;;1.73;1.13;;;20.50;99.90;;;;;;4129331;28;20049;-68
2022/07/09 00:36:13;;;;;;;2.83;1.38;;;20.50;99.90;;;;;;4128755;28;20130;-68
2022/07/09 00:38:14;;;;;;;3.10;1.80;;;20.50;99.90;;;;;;4129545;28;20485;-68
2022/07/09 00:40:14;;;;;;;2.13;1.52;;;20.40;99.90;;;;;;4124508;28;20035;-69
2022/07/09 00:42:15;;;;;;;3.05;1.42;;;20.40;99.90;;;;;;4122882;28;20039;-69
2022/07/09 00:44:16;;;;;;;3.80;1.70;;;20.40;99.90;;;;;;4122399;28;20065;-68
2022/07/09 00:46:17;;;;;;;2.97;1.75;;;20.40;99.90;;;;;;4119746;28;20066;-69
2022/07/09 00:48:19;;;;;;;3.97;1.75;;;20.40;99.90;;;;;;4120678;28;20047;-69
2022/07/09 00:50:20;;;;;;;3.30;1.73;;;20.30;99.90;;;;;;4118395;28;20043;-69
2022/07/09 00:52:20;;;;;;;3.92;1.83;;;20.30;99.90;;;;;;4123010;28;20035;-69
2022/07/09 00:54:22;;;;;;;7.50;1.85;;;20.30;99.90;;;;;;4120684;28;20622;-69
2022/07/09 00:56:24;;;;;;;2.67;2.05;;;20.30;99.90;;;;;;4120218;28;20312;-69
2022/07/09 00:58:24;;;;;;;4.50;2.30;;;20.30;99.90;;;;;;4120488;28;20113;-69
2022/07/09 01:00:25;;;;;;;3.65;2.35;;;20.30;99.90;;;;;;4119880;28;20414;-70
2022/07/09 01:02:26;;;;;;;2.95;1.83;;;20.30;99.90;;;;;;4122809;28;20034;-69
2022/07/09 01:04:26;;;;;;;3.35;1.70;;;20.30;99.90;;;;;;4120990;28;20064;-68
2022/07/09 01:06:27;;;;;;;2.28;1.80;;;20.20;99.90;;;;;;4122751;28;20052;-69
2022/07/09 01:08:27;;;;;;;3.03;1.92;;;20.10;99.90;;;;;;4123461;28;20054;-68
2022/07/09 01:10:28;;;;;;;1.85;1.52;;;20.10;99.90;;;;;;4121431;28;20053;-68
2022/07/09 01:12:29;;;;;;;2.78;1.65;;;20.10;99.90;;;;;;4125243;28;20555;-68
2022/07/09 01:14:30;;;;;;;2.10;1.48;;;20.00;99.90;;;;;;4123942;28;20038;-69
2022/07/09 01:16:32;;;;;;;1.85;1.52;;;20.00;99.90;;;;;;4124391;28;20022;-69
2022/07/09 01:18:33;;;;;;;3.28;1.67;;;20.00;99.90;;;;;;4126224;28;20039;-68
2022/07/09 01:20:33;;;;;;;2.50;1.33;;;20.00;99.90;;;;;;4123643;28;20043;-68
2022/07/09 01:22:35;;;;;;;3.20;1.73;;;20.00;99.90;;;;;;4128468;28;20121;-68
2022/07/09 01:24:35;;;;;;;2.75;1.80;;;20.00;99.90;;;;;;4123615;28;20034;-68
2022/07/09 01:26:36;;;;;;;2.97;1.75;;;20.00;99.90;;;;;;4122974;28;20381;-68
2022/07/09 01:28:36;;;;;;;2.28;1.63;;;19.90;99.90;;;;;;4123496;28;20425;-69
2022/07/09 01:30:39;;;;;;;2.83;1.70;;;19.90;99.90;;;;;;4125094;28;20113;-69
2022/07/09 01:32:40;;;;;;;2.92;2.00;;;19.90;99.90;;;;;;4126272;28;20034;-68
2022/07/09 01:34:40;;;;;;;5.13;2.15;;;19.90;99.90;;;;;;4123530;28;20042;-68
2022/07/09 01:36:41;;;;;;;2.83;1.70;;;19.90;99.90;;;;;;4123665;28;20107;-69
2022/07/09 01:38:42;;;;;;;1.85;1.63;;;19.90;99.90;;;;;;4123357;28;20035;-69
2022/07/09 01:40:42;;;;;;;2.58;2.15;;;19.90;99.90;;;;;;4125465;28;20490;-69
2022/07/09 01:42:43;;;;;;;7.20;3.55;;;19.90;99.90;;;;;;4126027;28;20049;-68
2022/07/09 01:44:44;;;;;;;3.13;2.53;;;19.90;99.90;;;;;;4123403;28;20187;-68
2022/07/09 01:46:45;;;;;;;4.20;2.63;;;19.90;99.90;;;;;;4122969;28;20039;-68
2022/07/09 01:48:45;;;;;;;3.38;2.55;;;19.90;99.90;;;;;;4123319;28;20113;-69
2022/07/09 01:50:46;;;;;;;4.35;2.95;;;19.90;99.90;;;;;;4124333;28;20026;-68
2022/07/09 01:52:47;;;;;;;5.60;3.08;;;19.90;99.90;;;;;;4125352;28;20498;-68
2022/07/09 01:54:47;;;;;;;3.85;2.40;;;19.90;99.90;;;;;;4123334;28;21070;-69
2022/07/09 01:56:48;;;;;;;4.53;2.05;;;19.90;99.90;;;;;;4124914;28;20046;-69
2022/07/09 01:58:48;;;;;;;3.05;1.92;;;19.90;99.90;;;;;;4127052;28;20041;-68
2022/07/09 02:00:49;;;;;;;2.80;1.90;;;19.90;99.90;;;;;;4130087;28;20039;-68
2022/07/09 02:02:50;;;;;;;3.70;2.08;;;19.90;99.90;;;;;;4131752;28;20093;-69
2022/07/09 02:04:50;;;;;;;3.25;2.05;;;19.90;99.90;;;;;;4131301;28;20042;-68
2022/07/09 02:06:51;;;;;;;3.40;2.10;;;19.90;99.90;;;;;;4130736;28;20354;-69
2022/07/09 02:08:52;;;;;;;2.78;1.83;;;19.80;99.90;;;;;;4131475;28;20041;-68
2022/07/09 02:10:54;;;;;;;2.90;2.00;;;19.80;99.90;;;;;;4127975;28;20385;-69
2022/07/09 02:12:55;;;;;;;2.70;2.00;;;19.80;99.90;;;;;;4131888;28;20026;-69
2022/07/09 02:14:55;;;;;;;3.88;2.05;;;19.80;99.90;;;;;;4131532;28;20045;-69
2022/07/09 02:16:57;;;;;;;3.92;2.40;;;19.70;99.90;;;;;;4130753;28;20492;-69
2022/07/09 02:18:57;;;;;;;4.68;2.20;;;19.70;99.90;;;;;;4130383;28;20041;-69
2022/07/09 02:20:58;;;;;;;3.55;2.42;;;19.70;99.90;;;;;;4128318;28;20490;-68
2022/07/09 02:22:59;;;;;;;6.05;3.22;;;19.60;99.90;;;;;;4131616;28;20524;-69
2022/07/09 02:24:59;;;;;;;4.05;2.67;;;19.60;99.90;;;;;;4131004;28;20430;-68
2022/07/09 02:27:00;;;;;;;3.88;2.40;;;19.60;99.90;;;;;;4130659;28;20401;-69
2022/07/09 02:29:01;;;;;;;4.35;2.97;;;19.60;99.90;;;;;;4131461;28;20104;-68
2022/07/09 02:31:02;;;;;;;4.35;3.22;;;19.60;99.90;;;;;;4129863;28;20053;-68
2022/07/09 02:33:03;;;;;;;5.93;3.20;;;19.50;99.90;;;;;;4131319;28;20038;-68
2022/07/09 02:35:05;;;;;;;4.07;3.03;;;19.50;99.90;;;;;;4131281;28;20038;-70
2022/07/09 02:37:06;;;;;;;2.72;2.50;;;19.50;99.90;;;;;;4130635;28;20033;-68
2022/07/09 02:39:07;;;;;;;5.20;2.83;;;19.50;99.90;;;;;;4131118;28;20030;-68
2022/07/09 02:41:08;;;;;;;4.32;2.90;;;19.40;99.90;;;;;;4129513;28;20044;-68
2022/07/09 02:43:08;;;;;;;4.82;3.25;;;19.40;99.90;;;;;;4130918;28;20031;-68
2022/07/09 02:45:09;;;;;;;3.53;2.88;;;19.40;99.90;;;;;;4130325;28;20057;-72
2022/07/09 02:47:10;;;;;;;4.95;2.85;;;19.40;99.90;;;;;;4131018;28;20034;-68
2022/07/09 02:49:10;;;;;;;3.53;2.75;;;19.40;99.90;;;;;;4131156;28;20049;-68
2022/07/09 02:51:11;;;;;;;4.07;2.95;;;19.40;99.90;;;;;;4129439;28;20081;-68
2022/07/09 02:53:11;;;;;;;4.22;2.85;;;19.40;99.90;;;;;;4130618;28;20057;-68
2022/07/09 02:55:12;;;;;;;5.57;3.53;;;19.40;99.90;;;;;;4130022;28;20050;-69
2022/07/09 02:57:13;;;;;;;4.68;2.80;;;19.40;99.90;;;;;;4130631;28;20034;-68
2022/07/09 02:59:13;;;;;;;4.10;2.90;;;19.30;99.90;;;;;;4130873;28;20383;-68
2022/07/09 03:01:14;;;;;;;5.80;3.47;;;19.40;99.90;;;;;;4129460;28;20034;-68
2022/07/09 03:03:14;;;;;;;6.82;3.13;;;19.40;99.90;;;;;;4130866;28;20046;-68
2022/07/09 03:05:15;;;;;;;4.45;3.33;;;19.30;99.90;;;;;;4130015;28;20035;-69
2022/07/09 03:07:16;;;;;;;4.32;3.33;;;19.40;99.90;;;;;;4130696;28;20034;-68
2022/07/09 03:09:16;;;;;;;4.32;3.30;;;19.30;99.90;;;;;;4130617;28;20031;-68
2022/07/09 03:11:17;;;;;;;4.30;3.17;;;19.30;99.90;;;;;;4126367;28;20441;-69
2022/07/09 03:13:18;;;;;;;5.10;3.67;;;19.30;99.90;;;;;;4123490;28;20039;-69
2022/07/09 03:15:18;;;;;;;5.65;4.00;;;19.30;99.90;;;;;;4129657;28;20057;-69
2022/07/09 03:17:19;;;;;;;6.43;4.60;;;19.40;99.90;;;;;;4130319;28;20051;-69
2022/07/09 03:19:19;;;;;;;5.93;4.47;;;19.40;99.90;;;;;;4131061;28;20113;-68
2022/07/09 03:21:20;;;;;;;4.93;3.90;;;19.40;99.90;;;;;;4129082;28;20026;-68
2022/07/09 03:23:21;;;;;;;4.05;3.40;;;19.40;99.90;;;;;;4123155;28;20027;-69
2022/07/09 03:25:22;;;;;;;6.47;3.25;;;19.40;99.90;;;;;;4120915;28;20104;-69
2022/07/09 03:27:23;;;;;;;3.93;3.13;;;19.40;99.90;;;;;;4121755;28;20034;-68
2022/07/09 03:29:24;;;;;;;5.22;3.25;;;19.40;99.90;;;;;;4122320;28;20504;-68
2022/07/09 03:31:24;;;;;;;5.43;3.22;;;19.30;99.90;;;;;;4123728;28;20073;-69
2022/07/09 03:33:25;;;;;;;3.90;2.90;;;19.30;99.90;;;;;;4124103;28;20038;-69
2022/07/09 03:35:26;;;;;;;5.32;3.42;;;19.30;99.90;;;;;;4120888;28;20030;-69
2022/07/09 03:37:26;;;;;;;5.22;3.30;;;19.30;99.90;;;;;;4121366;28;20038;-68
2022/07/09 03:39:27;;;;;;;5.30;3.47;;;19.20;99.90;;;;;;4123630;28;20058;-68
2022/07/09 03:41:27;;;;;;;4.18;3.03;;;19.20;99.90;;;;;;4122884;28;20386;-69
2022/07/09 03:43:28;;;;;;;3.97;2.95;;;19.20;99.90;;;;;;4124082;28;20038;-68
2022/07/09 03:45:29;;;;;;;4.85;3.65;;;19.20;99.90;;;;;;4120436;28;20053;-69
2022/07/09 03:47:30;;;;;;;4.38;3.45;;;19.20;99.90;;;;;;4121188;28;20033;-68
2022/07/09 03:49:30;;;;;;;4.53;3.65;;;19.10;99.90;;;;;;4124116;28;20023;-68
2022/07/09 03:51:32;;;;;;;4.28;3.35;;;19.10;99.90;;;;;;4122285;28;20488;-68
2022/07/09 03:53:33;;;;;;;6.95;4.68;;;19.10;99.90;;;;;;4123843;28;20125;-68
2022/07/09 03:55:34;;;;;;;6.07;4.50;;;19.10;99.90;;;;;;4120476;28;20426;-68
2022/07/09 03:57:34;;;;;;;7.35;5.88;;;19.20;99.90;;;;;;4121271;28;20393;-68
2022/07/09 03:59:35;;;;;;;7.03;5.00;;;19.10;99.90;;;;;;4121316;28;20039;-67
2022/07/09 04:01:35;;;;;;;7.07;5.90;;;19.10;99.90;;;;;;4121776;28;20031;-68
2022/07/09 04:03:36;;;;;;;7.15;5.57;;;19.10;99.90;;;;;;4124333;28;20089;-68
2022/07/09 04:05:37;;;;;;;7.28;5.75;;;19.10;99.90;;;;;;4122167;28;20605;-69
2022/07/09 04:07:39;;;;;;;9.68;5.85;;;19.10;99.90;;;;;;4119364;28;20125;-68
2022/07/09 04:09:40;;;;;;;8.50;6.07;;;19.10;99.90;;;;;;4123196;28;20394;-68
2022/07/09 04:11:41;;;;;;;7.75;5.72;;;19.10;99.90;;;;;;4125058;28;20409;-68
2022/07/09 04:13:41;;;;;;;7.68;5.63;;;19.10;99.90;;;;;;4122265;28;20081;-68
2022/07/09 04:15:42;;;;;;;9.90;5.28;;;19.20;99.90;;;;;;4120116;28;20050;-68
2022/07/09 04:17:43;;;;;;;6.72;4.93;;;19.10;99.90;;;;;;4120988;28;20030;-68
2022/07/09 04:19:43;;;;;;;6.75;5.13;;;19.10;99.90;;;;;;4122609;28;20034;-68
2022/07/09 04:21:44;;;;;;;7.10;5.07;;;19.10;99.90;;;;;;4124028;28;20026;-68
2022/07/09 04:23:44;;;;;;;7.68;5.07;;;19.10;99.90;;;;;;4122156;28;20472;-68
2022/07/09 04:25:45;;;;;;;5.95;4.80;;;19.10;99.90;;;;;;4122104;28;20097;-68
2022/07/09 04:27:46;;;;;;;6.90;5.43;;;19.10;99.90;;;;;;4120984;28;20035;-68
2022/07/09 04:29:46;;;;;;;13.45;7.03;;;19.10;99.90;;;;;;4121827;28;20089;-68
2022/07/09 04:31:47;;;;;;;9.82;5.85;;;19.00;99.90;;;;;;4123710;28;20510;-68
2022/07/09 04:33:49;;;;;;;8.75;6.30;;;19.00;99.90;;;;;;4118755;28;20121;-68
2022/07/09 04:35:49;;;;;;;7.90;5.72;;;19.00;99.90;;;;;;4122249;28;20031;-68
2022/07/09 04:37:50;;;;;;;9.23;6.40;;;18.90;99.90;;;;;;4124644;28;20035;-68
2022/07/09 04:39:50;;;;;;;6.55;5.75;;;18.90;99.90;;;;;;4121067;28;20042;-68
2022/07/09 04:41:51;;;;;;;13.38;7.57;;;18.90;99.90;;;;;;4122943;28;20045;-68
2022/07/09 04:43:52;;;;;;;9.15;6.90;;;19.00;99.90;;;;;;4120661;28;20035;-68
2022/07/09 04:45:52;;;;;;;9.38;6.32;;;18.90;99.90;;;;;;4122465;28;20105;-68
2022/07/09 04:47:53;;;;;;;8.27;6.13;;;19.00;99.90;;;;;;4119962;28;20035;-68
2022/07/09 04:49:53;;;;;;;8.52;6.38;;;19.00;99.90;;;;;;4122007;28;20026;-68
2022/07/09 04:51:54;;;;;;;8.05;6.00;;;19.00;99.90;;;;;;4121338;28;20080;-69
2022/07/09 04:53:54;;;;;;;9.20;7.68;;;19.00;99.90;;;;;;4123788;28;20376;-68
2022/07/09 04:55:55;;;;;;;10.90;7.28;;;19.00;99.90;;;;;;4122259;28;20121;-68
2022/07/09 04:57:56;;;;;;;10.07;6.90;;;19.00;99.90;;;;;;4124300;28;20043;-68
2022/07/09 05:00:00;;;;;;;9.55;7.65;;;19.10;99.90;;;;;;4122814;28;20038;-68
2022/07/09 05:02:01;;;;;;;10.00;7.70;;;19.10;99.90;;;;;;4124657;28;20374;-68
2022/07/09 05:04:02;;;;;;;10.68;7.68;;;19.10;99.90;;;;;;4128015;28;20114;-68
2022/07/09 05:06:02;;;;;;;11.75;9.15;;;19.10;99.90;;;;;;4120068;28;20056;-68
2022/07/09 05:08:03;;;;;;;10.77;8.15;;;19.10;99.90;;;;;;4120666;28;20110;-68
2022/07/09 05:10:04;;;;;;;13.80;10.02;;;19.20;99.90;;;;;;4122481;28;20031;-70
2022/07/09 05:12:05;;;;;;;12.43;9.32;;;19.20;99.90;;;;;;4123123;28;20403;-68
2022/07/09 05:14:06;;;;;;;10.45;7.78;;;19.10;99.90;;;;;;4120483;28;20034;-68
2022/07/09 05:16:07;;;;;;;8.88;7.60;;;19.20;99.90;;;;;;4121383;28;20502;-67
2022/07/09 05:18:08;;;;;;;11.93;8.98;;;19.20;99.90;;;;;;4120397;28;20035;-68
2022/07/09 05:20:09;;;;;;;11.73;8.82;;;19.30;99.90;;;;;;4120700;28;20501;-70
2022/07/09 05:22:09;;;;;;;10.05;7.70;;;19.30;99.90;;;;;;4124373;28;20049;-68
2022/07/09 05:24:10;;;;;;;9.18;8.07;;;19.30;99.90;;;;;;4122543;28;20568;-68
2022/07/09 05:26:11;;;;;;;10.05;7.68;;;19.30;99.90;;;;;;4120833;28;20083;-68
2022/07/09 05:28:11;;;;;;;9.77;7.72;;;19.30;99.90;;;;;;4118408;28;20117;-68
2022/07/09 05:30:14;;;;;;;9.73;7.78;;;19.40;99.90;;;;;;4118157;28;20502;-69
2022/07/09 05:32:15;;;;;;;10.63;8.85;;;19.40;99.90;;;;;;4121920;28;20058;-68
2022/07/09 05:34:16;;;;;;;11.85;7.93;;;19.40;99.90;;;;;;4121529;28;20062;-68
2022/07/09 05:36:17;;;;;;;13.48;8.82;;;19.50;99.90;;;;;;4119289;28;20035;-69
2022/07/09 05:38:18;;;;;;;12.32;8.25;;;19.50;99.90;;;;;;4120862;28;20125;-69
2022/07/09 05:40:19;;;;;;;10.55;8.60;;;19.50;99.90;;;;;;4119410;28;20035;-69
2022/07/09 05:42:19;;;;;;;12.02;8.55;;;19.50;99.90;;;;;;4121543;28;20030;-69
2022/07/09 05:44:20;;;;;;;11.93;8.50;;;19.60;99.90;;;;;;4118572;28;20035;-69
2022/07/09 05:46:21;;;;;;;12.82;8.35;;;19.70;99.90;;;;;;4126001;28;20042;-69
2022/07/09 05:48:21;;;;;;;9.90;8.50;;;19.70;99.90;;;;;;4127502;28;20046;-69
2022/07/09 05:50:22;;;;;;;11.02;8.68;;;19.70;99.90;;;;;;4125426;28;20494;-69
2022/07/09 05:52:22;;;;;;;11.32;8.68;;;19.70;99.90;;;;;;4126043;28;20104;-69
2022/07/09 05:54:23;;;;;;;15.32;10.30;;;19.70;99.90;;;;;;4122814;28;20034;-69
2022/07/09 05:56:24;;;;;;;13.10;10.00;;;19.70;99.90;;;;;;4126410;28;20025;-68
2022/07/09 05:58:24;;;;;;;12.57;9.75;;;19.70;99.90;;;;;;4123817;28;20023;-69
2022/07/09 06:00:25;;;;;;;9.48;7.43;;;19.70;99.90;;;;;;4121885;28;20067;-69
2022/07/09 06:02:25;;;;;;;9.82;8.45;;;19.70;99.90;;;;;;4126879;28;20031;-69
2022/07/09 06:04:26;;;;;;;12.82;8.32;;;19.70;99.90;;;;;;4122840;28;20038;-69
2022/07/09 06:06:27;;;;;;;12.52;9.20;;;19.80;99.90;;;;;;4124773;28;20030;-69
2022/07/09 06:08:27;;;;;;;12.57;9.32;;;19.80;99.90;;;;;;4127097;28;22167;-69
2022/07/09 06:10:28;;;;;;;9.85;8.80;;;19.80;99.90;;;;;;4123040;28;20541;-69
2022/07/09 06:12:29;;;;;;;10.45;9.18;;;19.90;99.90;;;;;;4126368;28;20031;-69
2022/07/09 06:14:29;;;;;;;12.45;8.40;;;19.90;99.90;;;;;;4123785;28;20462;-69
2022/07/09 06:16:30;;;;;;;10.98;7.70;;;20.10;99.90;;;;;;4120298;28;20030;-69
2022/07/09 06:18:30;;;;;;;10.90;8.27;;;20.20;99.90;;;;;;4124846;28;20074;-69
2022/07/09 06:20:31;;;;;;;9.95;7.90;;;20.30;99.90;;;;;;4124499;28;20340;-69
2022/07/09 06:22:32;;;;;;;8.38;6.93;;;20.50;99.90;;;;;;4128154;28;20026;-69
2022/07/09 06:24:33;;;;;;;11.95;7.93;;;20.50;99.90;;;;;;4122046;28;20448;-69
2022/07/09 06:26:33;;;;;;;9.68;8.00;;;20.70;99.90;;;;;;4123835;28;20374;-68
2022/07/09 06:28:37;;;;;;;6.65;5.90;;;20.80;99.90;;;;;;4125451;28;20110;-69
2022/07/09 06:30:38;;;;;;;10.68;7.53;;;21.00;99.90;;;;;;4122282;28;20033;-68
2022/07/09 06:32:39;;;;;;;7.55;6.38;;;21.30;99.90;;;;;;4126503;28;20033;-69
2022/07/09 06:34:39;;;;;;;10.20;7.32;;;21.50;99.90;;;;;;4123368;28;20038;-69
2022/07/09 06:36:41;;;;;;;8.90;6.20;;;21.70;99.90;;;;;;4122628;28;20046;-69
2022/07/09 06:41:01;;;;;;;7.28;5.18;;;22.10;99.90;;;;;;4119438;28;20084;-70
2022/07/09 06:43:01;;;;;;;8.35;5.78;;;22.30;99.90;;;;;;4130508;28;20066;-70
2022/07/09 06:45:02;;;;;;;7.95;5.68;;;22.50;99.90;;;;;;4126402;28;20062;-71
2022/07/09 06:47:03;;;;;;;6.88;4.95;;;22.60;99.90;;;;;;4121530;28;20530;-68
2022/07/09 06:49:05;;;;;;;8.25;6.40;;;22.70;99.90;;;;;;4123198;28;20027;-70
2022/07/09 06:51:06;;;;;;;6.70;5.33;;;22.80;99.90;;;;;;4124543;28;20035;-70
2022/07/09 06:53:07;;;;;;;5.95;4.90;;;22.80;99.90;;;;;;4128485;28;20041;-70
2022/07/09 06:55:08;;;;;;;7.63;3.95;;;22.80;99.90;;;;;;4122128;28;20170;-71
2022/07/09 06:57:10;;;;;;;7.65;4.72;;;22.90;99.90;;;;;;4122539;28;20038;-70
2022/07/09 06:59:10;;;;;;;4.93;4.20;;;22.90;99.90;;;;;;4121301;28;20482;-70
2022/07/09 07:01:11;;;;;;;5.82;4.40;;;22.90;99.90;;;;;;4124608;28;20034;-69
2022/07/09 07:03:11;;;;;;;6.93;5.45;;;22.90;99.90;;;;;;4128241;28;20041;-70
2022/07/09 07:05:12;;;;;;;5.65;4.20;;;22.70;99.90;;;;;;4122869;28;20061;-70
2022/07/09 07:07:12;;;;;;;6.63;4.82;;;22.80;99.90;;;;;;4123343;28;20035;-73
2022/07/09 07:09:13;;;;;;;4.68;3.60;;;22.70;99.90;;;;;;4124783;28;20033;-73
2022/07/09 07:11:14;;;;;;;6.30;4.68;;;22.80;99.90;;;;;;4127204;28;20410;-73
2022/07/09 07:13:14;;;;;;;4.78;4.10;;;22.80;99.90;;;;;;4125592;28;20035;-73
2022/07/09 07:15:15;;;;;;;4.50;3.50;;;22.80;99.90;;;;;;4126004;28;20034;-75
2022/07/09 07:17:16;;;;;;;6.05;3.30;;;22.80;99.90;;;;;;4128563;28;20035;-73
2022/07/09 07:19:17;;;;;;;3.95;3.10;;;22.80;99.90;;;;;;4131982;28;20037;-73
2022/07/09 07:21:17;;;;;;;4.45;3.40;;;22.80;99.90;;;;;;4123182;28;20461;-73
2022/07/09 07:23:18;;;;;;;4.20;3.20;;;22.80;99.90;;;;;;4128346;28;20035;-73
2022/07/09 07:25:18;;;;;;;4.32;3.22;;;22.80;99.90;;;;;;4125187;28;20485;-74
2022/07/09 07:27:19;;;;;;;5.30;3.40;;;22.80;99.90;;;;;;4130038;28;20375;-73
2022/07/09 07:29:20;;;;;;;8.73;4.03;;;22.80;99.90;;;;;;4128870;28;20114;-73
2022/07/09 07:31:22;;;;;;;3.92;2.85;;;22.80;99.90;;;;;;4129409;28;20049;-73
2022/07/09 07:33:23;;;;;;;3.28;2.70;;;22.80;99.90;;;;;;4125693;28;20089;-74
2022/07/09 07:35:23;;;;;;;3.28;2.83;;;22.70;99.90;;;;;;4131014;28;21518;-75
2022/07/09 07:37:24;;;;;;;3.08;2.00;;;22.70;99.90;;;;;;4123124;28;20034;-73
2022/07/09 07:39:26;;;;;;;2.47;1.95;;;22.70;99.90;;;;;;4126078;28;20039;-73
2022/07/09 07:41:27;;;;;;;2.28;1.98;;;22.70;99.90;;;;;;4130633;28;20034;-73
2022/07/09 07:43:27;;;;;;;3.20;2.20;;;22.80;99.90;;;;;;4127295;28;20030;-73
2022/07/09 07:45:28;;;;;;;4.82;2.50;;;22.80;99.90;;;;;;4123065;28;20050;-73
2022/07/09 07:47:29;;;;;;;3.25;2.10;;;22.80;99.90;;;;;;4124925;28;20090;-73
2022/07/09 07:49:29;;;;;;;4.68;2.08;;;22.80;99.90;;;;;;4128569;28;20117;-73
2022/07/09 07:51:30;;;;;;;2.45;1.55;;;22.80;99.90;;;;;;4124435;28;20039;-73
2022/07/09 07:53:31;;;;;;;2.58;1.48;;;22.80;99.90;;;;;;4126201;28;20049;-73
2022/07/09 07:55:32;;;;;;;3.75;1.70;;;22.80;99.90;;;;;;4122554;28;20031;-73
2022/07/09 07:57:33;;;;;;;2.35;1.55;;;22.80;99.90;;;;;;4121565;28;20038;-73
2022/07/09 07:59:33;;;;;;;1.45;1.10;;;22.90;99.90;;;;;;4124306;28;20592;-73
2022/07/09 08:01:34;;;;;;;1.90;0.93;;;23.00;99.90;;;;;;4123277;28;20042;-73
2022/07/09 08:03:34;;;;;;;2.42;1.13;;;23.00;99.90;;;;;;4124752;28;20088;-73
2022/07/09 08:05:35;;;;;;;1.10;1.00;;;23.10;99.90;;;;;;4122621;28;20034;-73
2022/07/09 08:07:36;;;;;;;1.55;1.02;;;23.10;99.90;;;;;;4122749;28;20030;-73
2022/07/09 08:09:36;;;;;;;2.08;1.10;;;23.20;99.90;;;;;;4125149;28;20031;-73
2022/07/09 08:11:37;;;;;;;1.73;1.00;;;23.30;99.90;;;;;;4122470;28;20054;-73
2022/07/09 08:13:39;;;;;;;1.13;1.02;;;23.30;99.90;;;;;;4122116;28;20038;-73
2022/07/09 08:15:39;;;;;;;1.65;1.10;;;23.40;99.90;;;;;;4126228;28;20030;-72
2022/07/09 08:17:40;;;;;;;1.20;1.10;;;23.50;99.90;;;;;;4121616;28;20085;-73
2022/07/09 08:19:41;;;;;;;1.30;1.10;;;23.40;99.90;;;;;;4123803;28;20034;-73
2022/07/09 08:21:42;;;;;;;1.23;1.05;;;23.40;99.90;;;;;;4121020;28;20378;-72
2022/07/09 08:23:51;;;;;;;1.92;1.13;;;23.50;99.90;;;;;;4122452;28;20038;-73
2022/07/09 08:25:52;;;;;;;1.50;1.10;;;23.50;99.90;;;;;;4121981;28;20478;-73
2022/07/09 08:27:53;;;;;;;2.05;1.35;;;23.50;99.90;;;;;;4120979;28;20027;-73
2022/07/09 08:29:53;;;;;;;1.25;0.90;;;23.50;99.90;;;;;;4124111;28;20463;-73
2022/07/09 08:31:54;;;;;;;0.70;0.50;;;23.50;99.90;;;;;;4126042;28;20109;-73
2022/07/09 08:33:55;;;;;;;1.75;1.10;;;23.60;99.90;;;;;;4127791;28;20370;-73
2022/07/09 08:35:56;;;;;;;3.08;1.17;;;23.60;99.90;;;;;;4145573;28;20038;-73
2022/07/09 08:37:56;;;;;;;1.15;1.00;;;23.60;99.90;;;;;;4128107;28;20057;-73
2022/07/09 08:39:57;;;;;;;1.92;1.00;;;23.70;99.90;;;;;;4124442;28;20039;-73
2022/07/09 08:41:59;;;;;;;1.58;1.25;;;23.80;99.90;;;;;;4124515;28;20038;-73
2022/07/09 08:44:03;;;;;;;1.40;0.88;;;23.80;99.90;;;;;;4125430;28;24923;-73
2022/07/09 08:46:05;;;;;;;1.42;1.00;;;23.90;99.90;;;;;;4106895;28;20418;-73
2022/07/09 08:48:07;;;;;;;1.45;1.15;;;23.90;99.90;;;;;;4121164;28;20057;-72
2022/07/09 08:50:08;;;;;;;2.30;1.33;;;24.00;99.90;;;;;;4122474;28;20042;-74
2022/07/09 08:52:10;;;;;;;1.40;1.20;;;24.10;99.80;;;;;;4124656;28;20037;-73
2022/07/09 08:54:11;;;;;;;1.38;0.65;;;24.10;99.90;;;;;;4120081;28;20054;-73
2022/07/09 08:56:11;;;;;;;7.70;1.23;;;24.10;99.90;;;;;;4122620;28;20054;-73
2022/07/09 08:58:14;;;;;;;1.45;1.00;;;24.10;99.00;;;;;;4113302;28;20043;-73
2022/07/09 09:00:14;;;;;;;1.60;0.98;;;24.30;99.90;;;;;;4122891;28;20038;-73
2022/07/09 09:02:15;;;;;;;1.90;1.00;;;24.30;99.90;;;;;;4123080;28;20039;-73
2022/07/09 09:04:17;;;;;;;2.33;1.10;;;24.40;99.60;;;;;;4120351;28;20034;-73
2022/07/09 09:06:21;;;;;;;;;;;24.50;99.90;;;;;;4122425;28;20125;-73
2022/07/09 09:08:24;;;;;;;0.90;0.75;;;24.60;99.60;;;;;;4120445;28;19925;-74
2022/07/09 09:10:27;;;;;;;0.57;0.57;;;24.70;99.20;;;;;;4126120;28;20373;-73
2022/07/09 09:12:28;;;;;;;1.42;0.80;;;24.70;99.30;;;;;;4121387;28;20090;-73
2022/07/09 09:14:30;;;;;;;1.13;1.00;;;24.80;98.60;;;;;;4122854;28;20038;-73
2022/07/09 09:16:30;;;;;;;0.55;0.50;;;24.80;96.80;;;;;;4119912;28;20054;-73
2022/07/09 09:18:31;;;;;;;0.77;0.68;;;24.90;96.70;;;;;;4120640;28;20034;-73
2022/07/09 09:20:31;;;;;;;0.77;0.60;;;24.90;97.10;;;;;;4118409;28;20058;-74
2022/07/09 09:22:32;;;;;;;1.55;0.70;;;24.90;96.90;;;;;;4122126;28;20054;-74
2022/07/09 09:24:34;;;;;;;1.42;0.80;;;25.00;98.80;;;;;;4126027;28;20109;-73
2022/07/09 09:26:36;;;;;;;1.33;1.00;;;25.10;97.50;;;;;;4122088;28;20034;-73
2022/07/09 09:28:50;;;;;;;0.95;0.60;;;25.10;97.20;;;;;;4125741;28;20613;-73
2022/07/09 09:30:51;;;;;;;1.13;0.60;;;25.10;97.20;;;;;;4127109;28;20030;-74
2022/07/09 09:33:02;;;;;;;1.30;0.73;;;25.10;97.80;;;;;;4128740;28;20520;-74
2022/07/09 09:35:03;;;;;;;1.75;0.85;;;25.20;98.40;;;;;;4124427;28;20106;-75
2022/07/09 09:37:04;;;;;;;1.80;0.90;;;25.10;96.50;;;;;;4126539;28;20401;-73
2022/07/09 09:39:19;;;;;;;1.15;0.77;;;25.10;96.80;;;;;;4123361;28;20034;-74
2022/07/09 09:41:24;;;;;;;1.85;0.80;;;25.10;96.80;;;;;;4126394;28;20022;-73
2022/07/09 09:43:26;;;;;;;0.95;0.73;;;25.10;97.60;;;;;;4125778;28;20553;-73
2022/07/09 09:45:28;;;;;;;3.50;1.00;;;25.20;97.70;;;;;;4124889;28;20532;-74
2022/07/09 09:47:28;;;;;;;1.25;0.95;;;25.20;96.90;;;;;;4124724;28;20034;-73
2022/07/09 09:49:29;;;;;;;1.17;0.85;;;25.20;97.40;;;;;;4123959;28;20039;-74
2022/07/09 09:51:31;;;;;;;1.77;0.88;;;25.30;97.10;;;;;;4127633;28;20389;-74
2022/07/09 09:53:32;;;;;;;4.05;1.33;;;25.30;96.30;;;;;;4123738;28;20062;-74
2022/07/09 09:55:32;;;;;;;3.22;1.60;;;25.40;96.30;;;;;;4124182;28;20037;-74
2022/07/09 09:57:35;;;;;;;1.92;1.13;;;25.40;96.00;;;;;;4126226;28;20512;-74
2022/07/09 09:59:38;;;;;;;1.77;1.08;;;25.40;96.20;;;;;;4123297;28;20487;-73
2022/07/09 10:01:41;;;;;;;0.80;0.60;;;25.40;96.30;;;;;;4126610;28;20038;-74
2022/07/09 10:03:42;;;;;;;1.13;1.00;;;25.40;95.50;;;;;;4127448;28;20142;-73
2022/07/09 10:05:43;;;;;;;2.45;1.27;;;25.30;96.20;;;;;;4125016;28;20405;-73
2022/07/09 10:07:44;;;;;;;1.85;0.90;;;25.20;96.30;;;;;;4124466;28;20066;-73
2022/07/09 10:09:58;;;;;;;1.05;0.75;;;25.20;97.10;;;;;;4113938;28;20027;-74
2022/07/09 10:11:59;;;;;;;1.30;0.80;;;25.20;97.20;;;;;;4126896;28;20038;-74
2022/07/09 10:14:00;;;;;;;1.27;1.17;;;25.10;96.70;;;;;;4123520;28;20045;-74
2022/07/09 10:16:00;;;;;;;1.13;0.90;;;25.10;96.20;;;;;;4123370;28;20053;-75
2022/07/09 10:18:11;;;;;;;3.83;1.60;;;25.00;96.40;;;;;;4130707;28;20058;-75
2022/07/09 10:20:11;;;;;;;1.33;0.82;;;25.00;96.20;;;;;;4123428;28;20038;-74
2022/07/09 10:22:12;;;;;;;1.55;1.17;;;25.00;97.10;;;;;;4129558;28;20073;-74
2022/07/09 10:24:28;;;;;;;4.10;1.30;;;25.00;96.80;;;;;;4123167;28;20129;-75
2022/07/09 10:26:42;;;;;;;1.40;1.20;;;24.90;96.70;;;;;;4126375;28;20557;-75
2022/07/09 10:28:42;;;;;;;2.30;1.38;;;24.90;96.60;;;;;;4123140;28;20105;-74
2022/07/09 10:30:43;;;;;;;2.45;1.55;;;25.00;96.70;;;;;;4126211;28;20062;-74
2022/07/09 10:32:46;;;;;;;3.58;1.42;;;24.90;96.80;;;;;;4124514;28;20085;-74